SDM601 UNKL-UNAA
Flight info
| Callsign | SDM601 |
|---|---|
| Flight time | 0h 31m |
| Altitude | 20000 |
| Route | IVRAS2F IVRAS G808 MIKET A817 RINAG RINAG1F |
| Aircraft | A320/M-SDE3FGHIRWY/LB1 |
Departure
| Time | 2026-05-08 15:45 |
|---|---|
| Airport | Krasnoyarsk International Airport (UNKL) |
Arrival
| Time | 2026-05-08 16:16 |
|---|---|
| Airport | Abakan International Airport (UNAA) |
| Time | Latitude | Longitude | Altitude | Speed | Heading |
|---|---|---|---|---|---|
| 2026-05-08 15:09 | 56.17946 | 92.48542 | 953 ft | 0 kts | 23° |
| 2026-05-08 15:29 | 56.17933 | 92.48532 | 952 ft | 2 kts | 26° |
| 2026-05-08 15:29 | 56.17918 | 92.48519 | 956 ft | 2 kts | 27° |
| 2026-05-08 15:29 | 56.17904 | 92.48505 | 956 ft | 2 kts | 32° |
| 2026-05-08 15:29 | 56.17890 | 92.48489 | 953 ft | 2 kts | 42° |
| 2026-05-08 15:30 | 56.17879 | 92.48467 | 954 ft | 2 kts | 75° |
| 2026-05-08 15:30 | 56.17878 | 92.48441 | 954 ft | 1 kts | 112° |
| 2026-05-08 15:30 | 56.17879 | 92.48438 | 954 ft | 0 kts | 112° |
| 2026-05-08 15:34 | 56.17878 | 92.48441 | 954 ft | 0 kts | 112° |
| 2026-05-08 15:35 | 56.17868 | 92.48460 | 957 ft | 8 kts | 147° |
| 2026-05-08 15:35 | 56.17817 | 92.48445 | 955 ft | 7 kts | 201° |
| 2026-05-08 15:35 | 56.17776 | 92.48416 | 954 ft | 6 kts | 201° |
| 2026-05-08 15:35 | 56.17732 | 92.48454 | 955 ft | 13 kts | 129° |
| 2026-05-08 15:36 | 56.17695 | 92.48596 | 956 ft | 12 kts | 112° |
| 2026-05-08 15:36 | 56.17675 | 92.48680 | 957 ft | 11 kts | 114° |
| 2026-05-08 15:36 | 56.17639 | 92.48827 | 954 ft | 9 kts | 114° |
| 2026-05-08 15:36 | 56.17589 | 92.49038 | 956 ft | 25 kts | 112° |
| 2026-05-08 15:37 | 56.17522 | 92.49327 | 956 ft | 26 kts | 112° |
| 2026-05-08 15:37 | 56.17475 | 92.49529 | 956 ft | 26 kts | 112° |
| 2026-05-08 15:37 | 56.17377 | 92.49941 | 956 ft | 28 kts | 114° |
| 2026-05-08 15:37 | 56.17324 | 92.50159 | 953 ft | 29 kts | 113° |
| 2026-05-08 15:38 | 56.17245 | 92.50492 | 957 ft | 29 kts | 113° |
| 2026-05-08 15:38 | 56.17164 | 92.50834 | 955 ft | 30 kts | 113° |
| 2026-05-08 15:38 | 56.17080 | 92.51184 | 954 ft | 31 kts | 113° |
| 2026-05-08 15:38 | 56.16996 | 92.51540 | 954 ft | 31 kts | 113° |
| 2026-05-08 15:39 | 56.16919 | 92.51858 | 955 ft | 28 kts | 114° |
| 2026-05-08 15:39 | 56.16832 | 92.52013 | 955 ft | 11 kts | 169° |
| 2026-05-08 15:39 | 56.16829 | 92.52015 | 953 ft | 0 kts | 170° |
| 2026-05-08 15:41 | 56.16750 | 92.52034 | 955 ft | 17 kts | 173° |
| 2026-05-08 15:42 | 56.16671 | 92.51990 | 955 ft | 8 kts | 256° |
| 2026-05-08 15:42 | 56.16674 | 92.51942 | 955 ft | 0 kts | 291° |
| 2026-05-08 15:44 | 56.16674 | 92.51941 | 955 ft | 1 kts | 291° |
| 2026-05-08 15:44 | 56.16731 | 92.51700 | 955 ft | 56 kts | 293° |
| 2026-05-08 15:44 | 56.16973 | 92.50689 | 955 ft | 118 kts | 292° |
| 2026-05-08 15:44 | 56.17365 | 92.49039 | 965 ft | 166 kts | 294° |
| 2026-05-08 15:45 | 56.17819 | 92.47176 | 1624 ft | 162 kts | 294° |
| 2026-05-08 15:45 | 56.18286 | 92.45317 | 2263 ft | 164 kts | 293° |
| 2026-05-08 15:45 | 56.18734 | 92.43419 | 2859 ft | 170 kts | 293° |
| 2026-05-08 15:45 | 56.19226 | 92.41310 | 3147 ft | 192 kts | 292° |
| 2026-05-08 15:46 | 56.19769 | 92.38984 | 3413 ft | 217 kts | 292° |
| 2026-05-08 15:46 | 56.20168 | 92.36202 | 3791 ft | 242 kts | 270° |
| 2026-05-08 15:46 | 56.19652 | 92.33255 | 4385 ft | 258 kts | 236° |
| 2026-05-08 15:46 | 56.18219 | 92.31272 | 5252 ft | 270 kts | 202° |
| 2026-05-08 15:47 | 56.16326 | 92.30886 | 6128 ft | 280 kts | 182° |
| 2026-05-08 15:47 | 56.14369 | 92.31148 | 6973 ft | 285 kts | 177° |
| 2026-05-08 15:47 | 56.12388 | 92.31613 | 7794 ft | 289 kts | 176° |
| 2026-05-08 15:47 | 56.10382 | 92.32139 | 8640 ft | 293 kts | 175° |
| 2026-05-08 15:48 | 56.06319 | 92.33137 | 10207 ft | 304 kts | 176° |
| 2026-05-08 15:48 | 56.04140 | 92.33612 | 10458 ft | 327 kts | 177° |
| 2026-05-08 15:48 | 56.01822 | 92.34081 | 10893 ft | 340 kts | 176° |
| 2026-05-08 15:49 | 55.99458 | 92.34553 | 11628 ft | 343 kts | 177° |
| 2026-05-08 15:49 | 55.97072 | 92.35030 | 12373 ft | 346 kts | 176° |
| 2026-05-08 15:49 | 55.94667 | 92.35514 | 13116 ft | 349 kts | 177° |
| 2026-05-08 15:49 | 55.92240 | 92.36002 | 13852 ft | 352 kts | 177° |
| 2026-05-08 15:50 | 55.89790 | 92.36497 | 14478 ft | 357 kts | 177° |
| 2026-05-08 15:50 | 55.87312 | 92.36998 | 15083 ft | 361 kts | 176° |
| 2026-05-08 15:50 | 55.84794 | 92.37506 | 15695 ft | 366 kts | 176° |
| 2026-05-08 15:50 | 55.82256 | 92.38015 | 16288 ft | 370 kts | 176° |
| 2026-05-08 15:51 | 55.79680 | 92.38524 | 16865 ft | 375 kts | 176° |
| 2026-05-08 15:51 | 55.77070 | 92.39037 | 17437 ft | 379 kts | 176° |
| 2026-05-08 15:51 | 55.74429 | 92.39557 | 18016 ft | 384 kts | 176° |
| 2026-05-08 15:51 | 55.71760 | 92.40083 | 18533 ft | 388 kts | 176° |
| 2026-05-08 15:52 | 55.69065 | 92.40616 | 19072 ft | 391 kts | 176° |
| 2026-05-08 15:52 | 55.66351 | 92.41153 | 19607 ft | 394 kts | 176° |
| 2026-05-08 15:52 | 55.63612 | 92.41691 | 19854 ft | 396 kts | 176° |
| 2026-05-08 15:52 | 55.60872 | 92.42228 | 19909 ft | 396 kts | 176° |
| 2026-05-08 15:53 | 55.58094 | 92.42773 | 19916 ft | 396 kts | 176° |
| 2026-05-08 15:53 | 55.55354 | 92.43311 | 19915 ft | 396 kts | 176° |
| 2026-05-08 15:53 | 55.52615 | 92.43851 | 19917 ft | 396 kts | 176° |
| 2026-05-08 15:53 | 55.49873 | 92.44390 | 19900 ft | 396 kts | 176° |
| 2026-05-08 15:54 | 55.47136 | 92.44925 | 19917 ft | 396 kts | 176° |
| 2026-05-08 15:54 | 55.44431 | 92.45451 | 19923 ft | 394 kts | 176° |
| 2026-05-08 15:54 | 55.41745 | 92.45979 | 19921 ft | 385 kts | 176° |
| 2026-05-08 15:54 | 55.39088 | 92.46297 | 19923 ft | 381 kts | 184° |
| 2026-05-08 15:55 | 55.36472 | 92.45803 | 19924 ft | 377 kts | 195° |
| 2026-05-08 15:55 | 55.31388 | 92.43622 | 19928 ft | 376 kts | 197° |
| 2026-05-08 15:55 | 55.28850 | 92.42530 | 19928 ft | 376 kts | 197° |
| 2026-05-08 15:56 | 55.26309 | 92.41441 | 19929 ft | 376 kts | 197° |
| 2026-05-08 15:56 | 55.23768 | 92.40355 | 19925 ft | 376 kts | 197° |
| 2026-05-08 15:56 | 55.21230 | 92.39271 | 19930 ft | 377 kts | 197° |
| 2026-05-08 15:56 | 55.18682 | 92.38180 | 19932 ft | 377 kts | 197° |
| 2026-05-08 15:57 | 55.16133 | 92.37088 | 19934 ft | 377 kts | 197° |
| 2026-05-08 15:57 | 55.13582 | 92.36002 | 19939 ft | 377 kts | 197° |
| 2026-05-08 15:57 | 55.11031 | 92.34918 | 19938 ft | 377 kts | 197° |
| 2026-05-08 15:57 | 55.08483 | 92.33831 | 19941 ft | 377 kts | 197° |
| 2026-05-08 15:58 | 55.05932 | 92.32745 | 19941 ft | 377 kts | 197° |
| 2026-05-08 15:58 | 55.03381 | 92.31662 | 19946 ft | 377 kts | 197° |
| 2026-05-08 15:58 | 55.00829 | 92.30581 | 19946 ft | 377 kts | 196° |
| 2026-05-08 15:58 | 54.98275 | 92.29508 | 19934 ft | 377 kts | 197° |
| 2026-05-08 15:59 | 54.95725 | 92.28433 | 19947 ft | 377 kts | 197° |
| 2026-05-08 15:59 | 54.93179 | 92.27360 | 19957 ft | 376 kts | 197° |
| 2026-05-08 15:59 | 54.90640 | 92.26292 | 19959 ft | 376 kts | 197° |
| 2026-05-08 15:59 | 54.88101 | 92.25223 | 19958 ft | 375 kts | 197° |
| 2026-05-08 16:00 | 54.85569 | 92.24157 | 19964 ft | 375 kts | 197° |
| 2026-05-08 16:00 | 54.83035 | 92.23087 | 19963 ft | 375 kts | 197° |
| 2026-05-08 16:00 | 54.80505 | 92.22025 | 19881 ft | 371 kts | 197° |
| 2026-05-08 16:00 | 54.78021 | 92.20994 | 19633 ft | 363 kts | 197° |
| 2026-05-08 16:01 | 54.75590 | 92.19984 | 19391 ft | 355 kts | 197° |
| 2026-05-08 16:01 | 54.73205 | 92.19004 | 19139 ft | 350 kts | 197° |
| 2026-05-08 16:01 | 54.70844 | 92.18033 | 18899 ft | 347 kts | 197° |
| 2026-05-08 16:01 | 54.68503 | 92.17063 | 18660 ft | 346 kts | 197° |
| 2026-05-08 16:02 | 54.66169 | 92.16089 | 18421 ft | 344 kts | 197° |
| 2026-05-08 16:02 | 54.63846 | 92.15106 | 18180 ft | 345 kts | 197° |
| 2026-05-08 16:02 | 54.61517 | 92.14123 | 17914 ft | 344 kts | 197° |
| 2026-05-08 16:02 | 54.59197 | 92.13153 | 17644 ft | 342 kts | 197° |
| 2026-05-08 16:03 | 54.56886 | 92.12195 | 17374 ft | 341 kts | 196° |
| 2026-05-08 16:03 | 54.54584 | 92.11250 | 17115 ft | 339 kts | 196° |
| 2026-05-08 16:03 | 54.52293 | 92.10308 | 16856 ft | 338 kts | 196° |
| 2026-05-08 16:03 | 54.50012 | 92.09363 | 16597 ft | 336 kts | 196° |
| 2026-05-08 16:04 | 54.47744 | 92.08431 | 16338 ft | 333 kts | 196° |
| 2026-05-08 16:04 | 54.45499 | 92.07513 | 15994 ft | 330 kts | 196° |
| 2026-05-08 16:04 | 54.43315 | 92.06388 | 15610 ft | 326 kts | 206° |
| 2026-05-08 16:04 | 54.41310 | 92.04621 | 15233 ft | 323 kts | 213° |
| 2026-05-08 16:05 | 54.39363 | 92.02699 | 14854 ft | 322 kts | 213° |
| 2026-05-08 16:05 | 54.37423 | 92.00778 | 14472 ft | 322 kts | 213° |
| 2026-05-08 16:05 | 54.35485 | 91.98864 | 14100 ft | 321 kts | 212° |
| 2026-05-08 16:05 | 54.33545 | 91.96963 | 13701 ft | 321 kts | 212° |
| 2026-05-08 16:06 | 54.31609 | 91.95064 | 13292 ft | 320 kts | 212° |
| 2026-05-08 16:06 | 54.29683 | 91.93181 | 12905 ft | 318 kts | 212° |
| 2026-05-08 16:06 | 54.27769 | 91.91309 | 12518 ft | 316 kts | 212° |
| 2026-05-08 16:06 | 54.25868 | 91.89444 | 12136 ft | 314 kts | 212° |
| 2026-05-08 16:07 | 54.23973 | 91.87592 | 11745 ft | 313 kts | 212° |
| 2026-05-08 16:07 | 54.22098 | 91.85766 | 11527 ft | 305 kts | 211° |
| 2026-05-08 16:07 | 54.20272 | 91.83993 | 11256 ft | 300 kts | 211° |
| 2026-05-08 16:07 | 54.18461 | 91.82230 | 10898 ft | 299 kts | 211° |
| 2026-05-08 16:08 | 54.16659 | 91.80477 | 10545 ft | 297 kts | 211° |
| 2026-05-08 16:08 | 54.14868 | 91.78735 | 10182 ft | 296 kts | 211° |
| 2026-05-08 16:08 | 54.13058 | 91.76942 | 9454 ft | 306 kts | 215° |
| 2026-05-08 16:08 | 54.11343 | 91.74799 | 8986 ft | 305 kts | 217° |
| 2026-05-08 16:09 | 54.09638 | 91.72662 | 8556 ft | 303 kts | 217° |
| 2026-05-08 16:09 | 54.08511 | 91.71263 | 8275 ft | 302 kts | 217° |
| 2026-05-08 16:09 | 54.06263 | 91.68484 | 7952 ft | 291 kts | 217° |
| 2026-05-08 16:09 | 54.04671 | 91.66514 | 7868 ft | 278 kts | 217° |
| 2026-05-08 16:10 | 54.03082 | 91.64539 | 7137 ft | 289 kts | 217° |
| 2026-05-08 16:10 | 54.01429 | 91.62487 | 6494 ft | 297 kts | 217° |
| 2026-05-08 16:10 | 53.99751 | 91.60436 | 5987 ft | 295 kts | 214° |
| 2026-05-08 16:10 | 53.98049 | 91.58643 | 5633 ft | 279 kts | 212° |
| 2026-05-08 16:11 | 53.96444 | 91.57047 | 5308 ft | 264 kts | 211° |
| 2026-05-08 16:11 | 53.94891 | 91.55538 | 4995 ft | 250 kts | 211° |
| 2026-05-08 16:11 | 53.93411 | 91.54001 | 4693 ft | 244 kts | 214° |
| 2026-05-08 16:11 | 53.91950 | 91.52564 | 4377 ft | 242 kts | 208° |
| 2026-05-08 16:12 | 53.90462 | 91.51353 | 4100 ft | 239 kts | 206° |
| 2026-05-08 16:12 | 53.88953 | 91.50181 | 3958 ft | 232 kts | 206° |
| 2026-05-08 16:12 | 53.87512 | 91.49058 | 3681 ft | 231 kts | 206° |
| 2026-05-08 16:12 | 53.86057 | 91.47920 | 3372 ft | 228 kts | 207° |
| 2026-05-08 16:13 | 53.84627 | 91.46803 | 3056 ft | 218 kts | 207° |
| 2026-05-08 16:13 | 53.83294 | 91.45763 | 2760 ft | 205 kts | 207° |
| 2026-05-08 16:13 | 53.82029 | 91.44775 | 2452 ft | 195 kts | 207° |
| 2026-05-08 16:13 | 53.80833 | 91.43841 | 2175 ft | 183 kts | 206° |
| 2026-05-08 16:14 | 53.79716 | 91.42970 | 1926 ft | 169 kts | 207° |
| 2026-05-08 16:14 | 53.78701 | 91.42179 | 1685 ft | 154 kts | 207° |
| 2026-05-08 16:14 | 53.77755 | 91.41434 | 1471 ft | 147 kts | 207° |
| 2026-05-08 16:14 | 53.77140 | 91.40960 | 1319 ft | 146 kts | 205° |
| 2026-05-08 16:15 | 53.76224 | 91.40257 | 1139 ft | 145 kts | 207° |
| 2026-05-08 16:15 | 53.75311 | 91.39535 | 925 ft | 145 kts | 207° |
| 2026-05-08 16:15 | 53.74426 | 91.38829 | 818 ft | 127 kts | 205° |
| 2026-05-08 16:15 | 53.73765 | 91.38328 | 808 ft | 68 kts | 204° |
| 2026-05-08 16:16 | 53.73409 | 91.38054 | 811 ft | 49 kts | 204° |
| 2026-05-08 16:16 | 53.73158 | 91.37919 | 808 ft | 19 kts | 183° |
| 2026-05-08 16:16 | 53.73138 | 91.37872 | 808 ft | 2 kts | 326° |
| 2026-05-08 16:16 | 53.73197 | 91.37892 | 808 ft | 12 kts | 24° |
| 2026-05-08 16:17 | 53.73295 | 91.37967 | 810 ft | 26 kts | 24° |
| 2026-05-08 16:17 | 53.73473 | 91.38105 | 811 ft | 29 kts | 25° |
| 2026-05-08 16:17 | 53.73661 | 91.38251 | 809 ft | 31 kts | 24° |
| 2026-05-08 16:17 | 53.73865 | 91.38407 | 810 ft | 33 kts | 25° |
| 2026-05-08 16:18 | 53.74073 | 91.38567 | 816 ft | 32 kts | 25° |
| 2026-05-08 16:18 | 53.74256 | 91.38740 | 816 ft | 31 kts | 38° |
| 2026-05-08 16:18 | 53.74388 | 91.38997 | 817 ft | 29 kts | 55° |
| 2026-05-08 16:18 | 53.74417 | 91.39068 | 817 ft | 0 kts | 55° |
| 2026-05-08 16:19 | 53.74419 | 91.39073 | 817 ft | 5 kts | 55° |
| 2026-05-08 16:20 | 53.74461 | 91.39169 | 817 ft | 11 kts | 46° |
| 2026-05-08 16:20 | 53.74516 | 91.39232 | 818 ft | 9 kts | 30° |
| 2026-05-08 16:20 | 53.74567 | 91.39270 | 818 ft | 7 kts | 24° |
| 2026-05-08 16:20 | 53.74608 | 91.39300 | 819 ft | 6 kts | 24° |
| 2026-05-08 16:21 | 53.74640 | 91.39324 | 819 ft | 4 kts | 24° |
| 2026-05-08 16:21 | 53.74680 | 91.39354 | 819 ft | 13 kts | 24° |
| 2026-05-08 16:21 | 53.74765 | 91.39418 | 818 ft | 12 kts | 24° |
| 2026-05-08 16:21 | 53.74845 | 91.39480 | 818 ft | 13 kts | 25° |
| 2026-05-08 16:22 | 53.74926 | 91.39550 | 818 ft | 13 kts | 42° |
| 2026-05-08 16:22 | 53.74924 | 91.39677 | 818 ft | 10 kts | 89° |
| 2026-05-08 16:22 | 53.74929 | 91.39778 | 818 ft | 8 kts | 94° |
| 2026-05-08 16:22 | 53.74957 | 91.39831 | 818 ft | 5 kts | 4° |
| 2026-05-08 16:23 | 53.74989 | 91.39815 | 818 ft | 4 kts | 342° |
| 2026-05-08 16:23 | 53.74996 | 91.39812 | 818 ft | 0 kts | 342° |